createdAt,value
2023-05-05T00:01:07.549Z,2.23
2023-05-05T00:03:36.298Z,2.43
2023-05-05T00:06:05.267Z,2.00
2023-05-05T00:08:33.242Z,2.63
2023-05-05T00:11:01.158Z,2.50
2023-05-05T00:13:29.050Z,2.50
2023-05-05T00:15:58.859Z,2.37
2023-05-05T00:18:28.279Z,2.70
2023-05-05T00:20:56.229Z,2.70
2023-05-05T00:23:24.160Z,2.77
2023-05-05T00:25:52.052Z,2.37
2023-05-05T00:28:19.970Z,2.37
2023-05-05T00:30:48.008Z,2.60
2023-05-05T00:33:16.051Z,2.53
2023-05-05T00:35:45.360Z,2.47
2023-05-05T00:38:13.292Z,2.40
2023-05-05T00:40:41.244Z,2.37
2023-05-05T00:43:09.244Z,3.10
2023-05-05T00:45:39.033Z,2.70
2023-05-05T00:48:08.039Z,2.53
2023-05-05T00:50:36.408Z,2.60
2023-05-05T00:53:07.957Z,2.67
2023-05-05T00:55:36.589Z,2.17
2023-05-05T00:58:04.878Z,2.53
2023-05-05T01:00:32.849Z,2.70
2023-05-05T01:03:01.277Z,2.67
2023-05-05T01:05:35.450Z,2.30
2023-05-05T01:08:20.477Z,2.40
2023-05-05T01:10:55.749Z,2.60
2023-05-05T01:13:33.295Z,2.27
2023-05-05T01:16:10.167Z,2.27
2023-05-05T01:18:44.539Z,2.63
2023-05-05T01:21:23.316Z,2.80
2023-05-05T01:24:29.137Z,2.50
2023-05-05T01:27:16.149Z,2.53
2023-05-05T01:30:01.663Z,3.07
2023-05-05T01:32:39.628Z,2.90
2023-05-05T01:35:15.236Z,3.00
2023-05-05T01:37:50.223Z,2.63
2023-05-05T01:40:26.269Z,2.80
2023-05-05T01:42:56.294Z,2.60
2023-05-05T01:45:27.585Z,2.37
2023-05-05T01:47:58.240Z,2.87
2023-05-05T01:50:29.169Z,2.67
2023-05-05T01:52:58.211Z,2.70
2023-05-05T01:55:29.054Z,3.60
2023-05-05T01:58:00.476Z,3.23
2023-05-05T02:00:29.146Z,2.60
2023-05-05T02:03:00.704Z,2.70
2023-05-05T02:05:29.106Z,2.50
2023-05-05T02:08:00.078Z,3.17
2023-05-05T02:10:29.930Z,2.63
2023-05-05T02:12:59.906Z,2.80
2023-05-05T02:15:30.102Z,2.60
2023-05-05T02:18:00.309Z,2.63
2023-05-05T02:20:31.196Z,2.90
2023-05-05T02:23:00.179Z,3.13
2023-05-05T02:25:36.587Z,2.90
2023-05-05T02:28:06.170Z,2.87
2023-05-05T02:30:37.398Z,2.53
2023-05-05T02:33:09.202Z,3.03
2023-05-05T02:35:39.936Z,2.70
2023-05-05T02:38:17.767Z,3.17
2023-05-05T02:40:48.573Z,3.47
2023-05-05T02:43:19.152Z,2.53
2023-05-05T02:45:47.183Z,3.00
2023-05-05T02:48:16.529Z,2.57
2023-05-05T02:50:44.486Z,3.07
2023-05-05T02:53:12.481Z,2.60
2023-05-05T02:55:43.400Z,3.00
2023-05-05T02:58:20.129Z,2.97
2023-05-05T03:00:54.494Z,3.00
2023-05-05T03:03:34.027Z,3.10
2023-05-05T03:06:08.313Z,3.10
2023-05-05T03:08:43.702Z,3.00
2023-05-05T03:11:19.222Z,3.10
2023-05-05T03:13:52.177Z,3.10
2023-05-05T03:16:24.182Z,2.80
2023-05-05T03:18:54.442Z,3.17
2023-05-05T03:21:22.714Z,2.90
2023-05-05T03:23:50.659Z,2.93
2023-05-05T03:26:19.500Z,3.30
2023-05-05T03:28:47.763Z,3.40
2023-05-05T03:31:16.058Z,3.30
2023-05-05T03:33:43.988Z,3.13
2023-05-05T03:36:13.216Z,2.83
2023-05-05T03:38:41.116Z,3.50
2023-05-05T03:41:09.022Z,3.23
2023-05-05T03:43:37.251Z,3.10
2023-05-05T03:46:05.547Z,3.80
2023-05-05T03:48:34.049Z,3.40
2023-05-05T03:51:02.017Z,3.87
2023-05-05T03:53:31.295Z,3.70
2023-05-05T03:56:02.216Z,4.07
2023-05-05T03:58:30.128Z,3.50
2023-05-05T04:00:58.102Z,3.83
2023-05-05T04:03:26.257Z,3.63
2023-05-05T04:05:54.345Z,3.57
2023-05-05T04:08:22.456Z,4.00
2023-05-05T04:10:52.086Z,4.60
2023-05-05T04:13:20.009Z,4.33
2023-05-05T04:15:48.174Z,4.17
2023-05-05T04:18:16.230Z,4.23
2023-05-05T04:20:44.263Z,3.67
2023-05-05T04:23:12.162Z,4.23
2023-05-05T04:25:40.238Z,4.80
2023-05-05T04:28:09.497Z,4.77
2023-05-05T04:30:37.452Z,5.00
2023-05-05T04:33:05.502Z,4.27
2023-05-05T04:35:33.532Z,4.20
2023-05-05T04:38:01.888Z,5.03
2023-05-05T04:40:29.853Z,4.97
2023-05-05T04:42:57.744Z,5.00
2023-05-05T04:45:27.154Z,5.30
2023-05-05T04:47:57.151Z,4.77
2023-05-05T04:50:25.187Z,4.80
2023-05-05T04:52:53.129Z,5.40
2023-05-05T04:55:21.204Z,5.03
2023-05-05T04:57:49.134Z,5.23
2023-05-05T05:00:17.661Z,5.30
2023-05-05T05:02:47.293Z,5.33
2023-05-05T05:05:15.358Z,5.60
2023-05-05T05:07:43.300Z,5.60
2023-05-05T05:10:11.796Z,5.67
2023-05-05T05:12:39.809Z,7.10
2023-05-05T05:15:09.160Z,5.63
2023-05-05T05:17:37.057Z,5.73
2023-05-05T05:20:07.920Z,5.10
2023-05-05T05:22:38.280Z,5.10
2023-05-05T05:25:06.937Z,5.73
2023-05-05T05:27:34.862Z,5.50
2023-05-05T05:30:03.038Z,5.20
2023-05-05T05:32:31.030Z,5.13
2023-05-05T05:34:58.950Z,4.73
2023-05-05T05:37:31.492Z,5.40
2023-05-05T05:39:59.388Z,4.93
2023-05-05T05:42:27.343Z,5.70
2023-05-05T05:44:55.233Z,4.83
2023-05-05T05:47:23.771Z,5.30
2023-05-05T05:49:51.731Z,5.87
2023-05-05T05:52:19.623Z,5.00
2023-05-05T05:54:49.123Z,4.93
2023-05-05T05:57:17.052Z,5.73
2023-05-05T05:59:44.982Z,5.20
2023-05-05T06:02:13.015Z,5.57
2023-05-05T06:04:41.171Z,5.60
2023-05-05T06:07:09.119Z,5.97
2023-05-05T06:09:37.311Z,5.60
2023-05-05T06:12:06.982Z,5.50
2023-05-05T06:14:34.943Z,5.60
2023-05-05T06:17:03.023Z,5.37
2023-05-05T06:19:30.969Z,5.50
2023-05-05T06:21:58.934Z,5.60
2023-05-05T06:24:26.845Z,5.43
2023-05-05T06:26:55.004Z,6.00
2023-05-05T06:29:24.282Z,5.37
2023-05-05T06:31:52.287Z,5.57
2023-05-05T06:34:20.252Z,5.30
2023-05-05T06:36:48.257Z,5.03
2023-05-05T06:39:18.952Z,5.57
2023-05-05T06:41:46.895Z,5.47
2023-05-05T06:44:14.813Z,5.67
2023-05-05T06:46:44.504Z,5.30
2023-05-05T06:49:12.815Z,5.50
2023-05-05T06:51:42.743Z,5.73
2023-05-05T06:54:10.950Z,4.20
2023-05-05T06:56:38.923Z,5.37
2023-05-05T06:59:06.852Z,5.60
2023-05-05T07:01:34.818Z,5.63
2023-05-05T07:04:04.181Z,4.67
2023-05-05T07:06:32.716Z,5.40
2023-05-05T07:09:00.651Z,4.77
2023-05-05T07:11:28.597Z,5.10
2023-05-05T07:13:56.530Z,5.20
2023-05-05T07:16:26.972Z,5.07
2023-05-05T07:18:55.062Z,4.80
2023-05-05T07:21:24.427Z,5.27
2023-05-05T07:23:52.397Z,4.63
2023-05-05T07:26:20.881Z,5.47
2023-05-05T07:28:48.813Z,5.07
2023-05-05T07:31:16.947Z,5.60
2023-05-05T07:33:44.867Z,5.20
2023-05-05T07:36:13.015Z,5.30
2023-05-05T07:38:47.559Z,5.43
2023-05-05T07:41:15.595Z,4.97
2023-05-05T07:43:44.682Z,5.33
2023-05-05T07:46:13.813Z,4.93
2023-05-05T07:48:41.974Z,5.00
2023-05-05T07:51:10.904Z,5.67
2023-05-05T07:53:38.916Z,5.60
2023-05-05T07:56:08.764Z,5.30
2023-05-05T07:58:36.940Z,5.20
2023-05-05T08:01:06.493Z,5.40
2023-05-05T08:03:34.604Z,5.70
2023-05-05T08:06:09.127Z,5.73
2023-05-05T08:08:37.855Z,5.63
2023-05-05T08:11:07.005Z,5.67
2023-05-05T08:13:36.733Z,4.90
2023-05-05T08:16:05.058Z,5.30
2023-05-05T08:18:34.384Z,4.97
2023-05-05T08:21:02.344Z,5.40
2023-05-05T08:23:30.278Z,5.07
2023-05-05T08:25:58.243Z,6.00
2023-05-05T08:28:26.242Z,5.60
2023-05-05T08:30:55.627Z,5.27
2023-05-05T08:33:23.535Z,5.23
2023-05-05T08:35:51.563Z,4.53
2023-05-05T08:38:19.610Z,6.30
2023-05-05T08:40:47.719Z,5.50
2023-05-05T08:43:15.837Z,5.40
2023-05-05T08:45:43.952Z,5.50
2023-05-05T08:48:14.482Z,5.60
2023-05-05T08:50:48.787Z,5.37
2023-05-05T08:53:18.114Z,5.50
2023-05-05T08:55:52.301Z,5.00
2023-05-05T08:58:20.496Z,5.90
2023-05-05T09:00:48.531Z,6.20
2023-05-05T09:03:18.670Z,5.40
2023-05-05T09:05:46.989Z,5.57
2023-05-05T09:08:15.337Z,5.50
2023-05-05T09:10:44.746Z,5.57
2023-05-05T09:13:13.251Z,5.70
2023-05-05T09:15:42.102Z,5.80
2023-05-05T09:18:12.030Z,5.80
2023-05-05T09:20:42.061Z,4.93
2023-05-05T09:23:11.412Z,5.83
2023-05-05T09:25:39.707Z,5.63
2023-05-05T09:28:11.829Z,5.17
2023-05-05T09:30:40.915Z,5.03
2023-05-05T09:33:09.195Z,5.67
2023-05-05T09:35:54.317Z,5.80
2023-05-05T09:38:23.498Z,5.43
2023-05-05T09:40:52.984Z,5.47
2023-05-05T09:43:22.807Z,5.00
2023-05-05T09:45:51.287Z,5.77
2023-05-05T09:48:26.759Z,5.40
2023-05-05T09:50:57.127Z,4.93
2023-05-05T09:53:25.587Z,5.10
2023-05-05T09:55:55.081Z,4.90
2023-05-05T09:58:24.574Z,5.47
2023-05-05T10:00:53.099Z,5.20
2023-05-05T10:03:21.331Z,6.00
2023-05-05T10:05:51.591Z,5.20
2023-05-05T10:08:22.304Z,5.10
2023-05-05T10:10:54.956Z,5.23
2023-05-05T10:13:26.050Z,5.57
2023-05-05T10:15:55.428Z,5.60
2023-05-05T10:18:24.969Z,5.17
2023-05-05T10:20:59.127Z,5.77
2023-05-05T10:23:36.931Z,5.30
2023-05-05T10:26:08.064Z,4.80
2023-05-05T10:28:42.558Z,4.77
2023-05-05T10:31:25.866Z,4.90
2023-05-05T10:33:56.152Z,4.80
2023-05-05T10:36:28.494Z,5.23
2023-05-05T10:38:58.550Z,5.17
2023-05-05T10:41:28.083Z,5.00
2023-05-05T10:43:58.113Z,4.43
2023-05-05T10:46:27.845Z,4.70
2023-05-05T10:49:03.898Z,5.07
2023-05-05T10:51:42.008Z,4.97
2023-05-05T10:54:19.951Z,5.17
2023-05-05T10:56:49.110Z,5.50
2023-05-05T10:59:42.692Z,5.10
2023-05-05T11:02:27.146Z,4.67
2023-05-05T11:05:17.838Z,5.10
2023-05-05T11:07:47.133Z,4.20
2023-05-05T11:10:18.737Z,5.00
2023-05-05T11:13:21.345Z,4.27
2023-05-05T11:15:50.442Z,4.43
2023-05-05T11:18:36.997Z,4.27
2023-05-05T11:21:18.357Z,5.37
2023-05-05T11:23:48.224Z,4.80
2023-05-05T11:26:19.625Z,4.50
2023-05-05T11:29:02.215Z,4.60
2023-05-05T11:31:31.626Z,5.03
2023-05-05T11:34:24.926Z,5.30
2023-05-05T11:36:53.781Z,4.17
2023-05-05T11:39:27.559Z,5.33
2023-05-05T11:42:10.976Z,4.70
2023-05-05T11:44:39.221Z,4.50
2023-05-05T11:47:27.234Z,5.40
2023-05-05T11:49:56.104Z,5.00
2023-05-05T11:52:29.764Z,4.13
2023-05-05T11:55:07.497Z,5.10
2023-05-05T11:57:36.840Z,5.30
2023-05-05T12:00:08.069Z,5.00
2023-05-05T12:02:36.555Z,4.40
2023-05-05T12:05:05.132Z,4.80
2023-05-05T12:07:34.382Z,4.77
2023-05-05T12:10:02.685Z,4.53
2023-05-05T12:12:40.137Z,4.87
2023-05-05T12:15:09.474Z,4.47
2023-05-05T12:17:40.324Z,4.80
2023-05-05T12:20:10.141Z,4.80
2023-05-05T12:22:38.590Z,5.00
2023-05-05T12:25:08.627Z,5.13
2023-05-05T12:27:38.784Z,4.83
2023-05-05T12:30:15.609Z,4.40
2023-05-05T12:32:44.131Z,4.63
2023-05-05T12:35:13.223Z,4.40
2023-05-05T12:37:41.523Z,4.97
2023-05-05T12:40:48.533Z,4.77
2023-05-05T12:43:30.653Z,5.10
2023-05-05T12:46:06.499Z,4.90
2023-05-05T12:48:34.900Z,4.60
2023-05-05T12:51:17.288Z,4.73
2023-05-05T12:53:45.828Z,3.93
2023-05-05T12:56:33.398Z,4.70
2023-05-05T12:59:03.365Z,3.97
2023-05-05T13:01:31.647Z,4.60
2023-05-05T13:04:07.300Z,4.67
2023-05-05T13:06:35.906Z,4.33
2023-05-05T13:09:03.903Z,5.20
2023-05-05T13:11:35.401Z,3.90
2023-05-05T13:14:04.862Z,4.40
2023-05-05T13:16:33.482Z,3.80
2023-05-05T13:19:01.394Z,4.60
2023-05-05T13:21:29.297Z,4.13
2023-05-05T13:24:05.142Z,4.00
2023-05-05T13:26:45.191Z,4.77
2023-05-05T13:29:14.454Z,4.33
2023-05-05T13:31:42.455Z,4.27
2023-05-05T13:34:10.436Z,4.53
2023-05-05T13:36:38.413Z,4.23
2023-05-05T13:39:06.923Z,4.50
2023-05-05T13:41:34.882Z,4.77
2023-05-05T13:44:02.878Z,4.30
2023-05-05T13:46:32.676Z,4.50
2023-05-05T13:49:00.636Z,4.67
2023-05-05T13:51:29.441Z,4.43
2023-05-05T13:53:57.370Z,3.80
2023-05-05T13:56:27.651Z,4.40
2023-05-05T13:58:55.717Z,4.70
2023-05-05T14:01:25.839Z,4.60
2023-05-05T14:03:57.161Z,4.20
2023-05-05T14:06:25.803Z,4.77
2023-05-05T14:08:53.857Z,4.67
2023-05-05T14:11:21.797Z,4.10
2023-05-05T14:13:49.763Z,4.30
2023-05-05T14:16:17.715Z,5.20
2023-05-05T14:18:45.696Z,5.03
2023-05-05T14:21:14.968Z,4.40
2023-05-05T14:23:42.893Z,4.77
2023-05-05T14:26:10.850Z,4.40
2023-05-05T14:28:38.802Z,3.93
2023-05-05T14:31:06.792Z,4.10
2023-05-05T14:33:34.726Z,4.53
2023-05-05T14:36:02.784Z,5.10
2023-05-05T14:38:32.094Z,4.17
2023-05-05T14:41:00.060Z,4.63
2023-05-05T14:43:28.004Z,4.90
2023-05-05T14:45:58.183Z,4.27
2023-05-05T14:48:26.204Z,4.87
2023-05-05T14:50:54.085Z,4.00
2023-05-05T14:53:21.950Z,3.80
2023-05-05T14:55:51.237Z,4.60
2023-05-05T14:58:22.386Z,4.03
2023-05-05T15:00:50.332Z,3.93
2023-05-05T15:03:18.342Z,4.27
2023-05-05T15:05:46.413Z,4.33
2023-05-05T15:08:14.759Z,4.33
2023-05-05T15:10:42.662Z,4.50
2023-05-05T15:13:12.016Z,4.13
2023-05-05T15:15:39.993Z,4.80
2023-05-05T15:18:07.992Z,4.27
2023-05-05T15:20:35.960Z,4.60
2023-05-05T15:23:04.190Z,3.70
2023-05-05T15:25:32.129Z,3.87
2023-05-05T15:28:00.880Z,3.73
2023-05-05T15:30:30.193Z,3.80
2023-05-05T15:32:58.170Z,3.60
2023-05-05T15:35:26.368Z,3.63
2023-05-05T15:37:55.124Z,3.83
2023-05-05T15:40:23.312Z,3.40
2023-05-05T15:42:51.392Z,3.70
2023-05-05T15:45:20.515Z,3.77
2023-05-05T15:47:50.454Z,3.73
2023-05-05T15:50:18.462Z,3.20
2023-05-05T15:52:48.108Z,3.67
2023-05-05T15:55:17.472Z,3.43
2023-05-05T15:57:45.427Z,3.67
2023-05-05T16:00:14.605Z,4.00
2023-05-05T16:02:42.621Z,3.40
2023-05-05T16:05:12.374Z,3.70
2023-05-05T16:07:40.416Z,3.80
2023-05-05T16:10:10.154Z,3.73
2023-05-05T16:12:38.301Z,3.40
2023-05-05T16:15:07.486Z,3.60
2023-05-05T16:17:35.798Z,3.53
2023-05-05T16:20:04.118Z,3.50
2023-05-05T16:22:33.410Z,3.60
2023-05-05T16:25:01.488Z,3.70
2023-05-05T16:27:29.597Z,3.63
2023-05-05T16:29:59.659Z,3.33
2023-05-05T16:32:27.912Z,3.53
2023-05-05T16:34:56.105Z,3.43
2023-05-05T16:37:24.186Z,2.90
2023-05-05T16:39:53.515Z,3.40
2023-05-05T16:42:22.660Z,3.40
2023-05-05T16:44:50.686Z,3.60
2023-05-05T16:47:18.585Z,3.47
2023-05-05T16:49:46.558Z,3.50
2023-05-05T16:52:14.513Z,3.30
2023-05-05T16:54:43.485Z,3.80
2023-05-05T16:57:12.853Z,3.50
2023-05-05T16:59:41.681Z,3.50
2023-05-05T17:02:09.748Z,3.87
2023-05-05T17:04:37.770Z,3.93
2023-05-05T17:07:05.776Z,3.60
2023-05-05T17:09:33.725Z,4.10
2023-05-05T17:12:02.284Z,3.83
2023-05-05T17:14:32.424Z,3.07
2023-05-05T17:17:00.380Z,3.77
2023-05-05T17:19:28.318Z,3.30
2023-05-05T17:21:56.754Z,3.90
2023-05-05T17:24:25.064Z,3.80
2023-05-05T17:26:53.069Z,3.57
2023-05-05T17:29:22.982Z,3.50
2023-05-05T17:31:52.301Z,3.57
2023-05-05T17:34:20.225Z,3.93
2023-05-05T17:36:48.140Z,3.80
2023-05-05T17:39:16.056Z,4.03
2023-05-05T17:41:43.994Z,3.17
2023-05-05T17:44:11.980Z,3.93
2023-05-05T17:46:40.382Z,3.90
2023-05-05T17:49:09.758Z,4.00
2023-05-05T17:51:37.671Z,3.30
2023-05-05T17:54:05.925Z,2.93
2023-05-05T17:56:35.881Z,3.60
2023-05-05T17:59:03.856Z,3.63
2023-05-05T18:01:31.906Z,3.70
2023-05-05T18:03:59.900Z,4.47
2023-05-05T18:06:29.368Z,4.53
2023-05-05T18:08:57.498Z,3.90
2023-05-05T18:11:27.768Z,3.80
2023-05-05T18:13:56.136Z,4.13
2023-05-05T18:16:24.238Z,3.80
2023-05-05T18:18:52.267Z,3.83
2023-05-05T18:21:20.219Z,4.13
2023-05-05T18:23:49.713Z,4.07
2023-05-05T18:26:17.662Z,3.40
2023-05-05T18:28:45.623Z,3.80
2023-05-05T18:31:13.703Z,3.70
2023-05-05T18:33:41.706Z,3.13
2023-05-05T18:36:09.713Z,3.60
2023-05-05T18:38:37.707Z,3.67
2023-05-05T18:41:07.108Z,3.60
2023-05-05T18:43:35.089Z,3.70
2023-05-05T18:46:03.028Z,3.60
2023-05-05T18:48:31.072Z,4.00
2023-05-05T18:51:02.436Z,3.80
2023-05-05T18:53:30.760Z,4.03
2023-05-05T18:55:58.948Z,3.80
2023-05-05T18:58:28.296Z,4.03
2023-05-05T19:00:56.337Z,3.50
2023-05-05T19:03:24.434Z,3.40
2023-05-05T19:05:52.452Z,4.20
2023-05-05T19:08:20.439Z,3.73
2023-05-05T19:10:48.451Z,4.50
2023-05-05T19:13:16.595Z,4.90
2023-05-05T19:15:46.046Z,3.87
2023-05-05T19:18:13.986Z,4.10
2023-05-05T19:20:43.427Z,4.10
2023-05-05T19:23:11.482Z,3.47
2023-05-05T19:25:39.840Z,3.70
2023-05-05T19:28:07.785Z,4.13
2023-05-05T19:30:36.055Z,3.60
2023-05-05T19:33:05.488Z,3.70
2023-05-05T19:35:33.575Z,3.93
2023-05-05T19:38:01.580Z,3.63
2023-05-05T19:40:29.536Z,4.07
2023-05-05T19:42:57.584Z,3.53
2023-05-05T19:45:26.205Z,3.37
2023-05-05T19:47:54.250Z,3.43
2023-05-05T19:50:23.909Z,3.40
2023-05-05T19:52:51.917Z,3.73
2023-05-05T19:55:19.946Z,4.20
2023-05-05T19:57:47.940Z,3.63
2023-05-05T20:00:16.426Z,3.20
2023-05-05T20:02:45.305Z,3.70
2023-05-05T20:05:13.959Z,3.30
2023-05-05T20:07:43.323Z,3.80
2023-05-05T20:10:13.129Z,3.30
2023-05-05T20:12:47.788Z,3.90
2023-05-05T20:15:18.426Z,3.70
2023-05-05T20:17:47.756Z,2.93
2023-05-05T20:20:18.676Z,3.93
2023-05-05T20:22:48.872Z,3.73
2023-05-05T20:25:17.280Z,3.13
2023-05-05T20:27:45.389Z,3.37
2023-05-05T20:30:14.419Z,3.30
2023-05-05T20:32:42.465Z,3.97
2023-05-05T20:35:12.772Z,3.13
2023-05-05T20:37:40.770Z,3.50
2023-05-05T20:40:13.734Z,3.87
2023-05-05T20:42:41.780Z,3.43
2023-05-05T20:45:11.206Z,3.60
2023-05-05T20:47:39.261Z,3.63
2023-05-05T20:50:08.499Z,4.63
2023-05-05T20:52:36.608Z,3.77
2023-05-05T20:55:05.026Z,3.43
2023-05-05T20:57:34.904Z,3.43
2023-05-05T21:00:04.117Z,3.43
2023-05-05T21:02:32.470Z,4.00
2023-05-05T21:05:02.897Z,3.57
2023-05-05T21:07:31.263Z,3.43
2023-05-05T21:09:59.328Z,4.00
2023-05-05T21:12:27.298Z,3.30
2023-05-05T21:14:58.715Z,4.10
2023-05-05T21:17:27.386Z,4.37
2023-05-05T21:19:56.246Z,4.10
2023-05-05T21:22:24.635Z,3.70
2023-05-05T21:24:52.650Z,3.83
2023-05-05T21:27:21.220Z,3.73
2023-05-05T21:29:52.020Z,3.77
2023-05-05T21:32:21.360Z,4.40
2023-05-05T21:34:49.378Z,3.97
2023-05-05T21:37:17.323Z,4.10
2023-05-05T21:39:45.240Z,3.70
2023-05-05T21:42:13.221Z,4.30
2023-05-05T21:44:41.159Z,4.00
2023-05-05T21:47:11.882Z,4.10
2023-05-05T21:49:41.224Z,4.17
2023-05-05T21:52:09.162Z,4.30
2023-05-05T21:54:37.127Z,4.57
2023-05-05T21:57:05.253Z,4.97
2023-05-05T21:59:33.230Z,3.93
2023-05-05T22:02:01.276Z,4.40
2023-05-05T22:04:29.390Z,4.00
2023-05-05T22:06:58.784Z,4.40
2023-05-05T22:09:26.839Z,4.23
2023-05-05T22:11:54.819Z,4.30
2023-05-05T22:14:22.799Z,4.13
2023-05-05T22:16:51.087Z,4.20
2023-05-05T22:19:19.079Z,4.20
2023-05-05T22:21:46.999Z,4.10
2023-05-05T22:24:16.290Z,4.90
2023-05-05T22:26:44.207Z,4.33
2023-05-05T22:29:12.290Z,4.03
2023-05-05T22:31:40.335Z,4.03
2023-05-05T22:34:08.395Z,4.33
2023-05-05T22:36:36.364Z,4.47
2023-05-05T22:39:04.353Z,3.53
2023-05-05T22:41:33.730Z,4.17
2023-05-05T22:44:03.569Z,4.10
2023-05-05T22:46:31.567Z,4.90
2023-05-05T22:48:59.577Z,4.43
2023-05-05T22:51:27.851Z,4.20
2023-05-05T22:53:55.811Z,4.77
2023-05-05T22:56:23.731Z,4.10
2023-05-05T22:58:53.019Z,4.63
2023-05-05T23:01:21.008Z,4.10
2023-05-05T23:03:49.278Z,5.10
2023-05-05T23:06:17.322Z,4.53
2023-05-05T23:08:45.265Z,4.13
2023-05-05T23:11:13.200Z,3.90
2023-05-05T23:13:41.312Z,4.50
2023-05-05T23:16:10.816Z,4.03
2023-05-05T23:18:38.876Z,4.43
2023-05-05T23:21:06.890Z,4.50
2023-05-05T23:23:34.840Z,4.33
2023-05-05T23:26:02.784Z,4.13
2023-05-05T23:28:30.907Z,4.43
2023-05-05T23:30:58.849Z,4.90
2023-05-05T23:33:28.149Z,4.10
2023-05-05T23:35:56.074Z,4.63
2023-05-05T23:38:24.040Z,4.60
2023-05-05T23:40:52.044Z,3.93
2023-05-05T23:43:20.010Z,4.20
2023-05-05T23:45:47.934Z,3.87
2023-05-05T23:48:15.906Z,4.60
2023-05-05T23:50:45.270Z,4.63
2023-05-05T23:53:13.195Z,5.37
2023-05-05T23:55:41.140Z,4.70
2023-05-05T23:58:09.072Z,4.40
